Home > Products > Valid Products > MTR

000
SAUS44 KMAF 222354
MTR6R6
METAR K6R6 222353Z AUTO 29007KT 20/03 A2979 RMK AO1 SLP063 T02000033
10250 20194 53008 $





000
SAUS44 KMAF 222309
MTRGDP
METAR KGDP 222251Z AUTO 24025G37KT 10SM FEW065 14/M02 A2992 RMK AO2
PK WND 25037/2249 SLP083 T01441017





000
SAUS44 KMAF 222255
MTR6R6
METAR K6R6 222253Z AUTO 28007KT 23/03 A2978 RMK AO1 PK WND
22027/2213 SLP058 T02280028 $





000
SAUS44 KMAF 222216 COR
MTRGDP
METAR KGDP 222151Z AUTO 25034G38KT 10SM CLR 16/M02 A2990 RMK AO2 PK
WND 25038/2151 SLP071 T01611022





000
SAUS44 KMAF 222210 COR
MTRGDP
METAR KGDP 222151Z AUTO 25034G38KT 10SM CLR 16/M02 A2990 RMK AO2 PK
WND 25038/2151 SLP071 T01611022





000
SAUS44 KMAF 222209
MTRGDP
METAR KGDP 222151Z AUTO 25034G38KT 10SM CLR 16/M02 A2990 RMK AO2 PK
WND 25038/2151 SLP071 T01611022





000
SAUS44 KMAF 222154
MTR6R6
METAR K6R6 222153Z AUTO 23021G25KT 24/03 A2977 RMK AO1 PK WND
23032/2056 SLP052 T02440033 $





000
SAUS44 KMAF 222154
MTR6R6
METAR K6R6 222153Z AUTO 23021G25KT 24/03 A2977 RMK AO1 PK WND
23032/2056 SLP052 T02440033 $





000
SAUS44 KMAF 222110 COR
MTRGDP
METAR KGDP 222051Z AUTO 25028G35KT 10SM SCT065 18/M01 A2993 RMK AO2
PK WND 24036/2031 SLP077 T01781011 56028





000
SAUS44 KMAF 222109
MTRGDP
METAR KGDP 222051Z AUTO 25028G35KT 10SM SCT065 18/M01 A2993 RMK AO2
PK WND 24036/2031 SLP077 T01781011 56028





000
SAUS44 KMAF 222054
MTR6R6
METAR K6R6 222053Z AUTO 24021G25KT 24/09 A2977 RMK AO1 PK WND
24028/2036 SLP052 T02440089 56036 $





000
SAUS44 KMAF 222009
MTRGDP
METAR KGDP 221951Z AUTO 24022G33KT 10SM CLR 17/M01 A2995 RMK AO2 PK
WND 26033/1944 SLP083 T01721006





000
SAUS44 KMAF 221954
MTR6R6
METAR K6R6 221953Z AUTO 22009KT 22/13 A2980 RMK AO1 SLP065 T02220133
$





000
SAUS44 KMAF 221909
MTRGDP
METAR KGDP 221851Z AUTO 26020G24KT 10SM CLR 17/01 A3000 RMK AO2 PK
WND 25027/1810 SLP104 T01720006





000
SAUS44 KMAF 221854
MTR6R6
METAR K6R6 221853Z AUTO VRB06KT 21/13 A2984 RMK AO1 SLP080 T02110133
$





000
SAUS44 KMAF 221809
MTRGDP
METAR KGDP 221751Z AUTO 24017G23KT 10SM FEW090 17/01 A3003 RMK AO2
SLP119 60000 T01670006 10172 20067 58012





000
SAUS44 KMAF 221754
MTR6R6
METAR K6R6 221753Z AUTO 27004KT 19/15 A2988 RMK AO1 SLP095 T01940150
10194 20156 58012 $





000
SAUS44 KMAF 221709
MTRGDP
METAR KGDP 221651Z AUTO 24016G23KT 10SM BKN100 17/00 A3005 RMK AO2
SLP125 T01670000





000
SAUS44 KMAF 221609
MTRGDP
METAR KGDP 221551Z AUTO VRB04KT 10SM CLR 11/00 A3006 RMK AO2 SLP140
T01060000





000
SAUS44 KMAF 221554
MTR6R6
METAR K6R6 221553Z AUTO 00000KT 16/15 A2992 RMK AO1 SLP110 T01610150
$





000
SAUS44 KMAF 221554
MTR6R6
METAR K6R6 221553Z AUTO 00000KT 16/15 A2992 RMK AO1 SLP110 T01610150
$





000
SAUS44 KMAF 221509
MTRGDP
METAR KGDP 221451Z AUTO 25007KT 8SM FEW002 OVC095 09/03 A3007 RMK
AO2 RAE06 SLP145 P0000 60000 T00940028 53012





000
SAUS44 KMAF 221502
MTRGDP
SPECI KGDP 221444Z AUTO 16005KT 5SM HZ SCT002 OVC090 09/06 A3007 RMK
AO2 RAE06 P0000 T00890056





000
SAUS44 KMAF 221454
MTR6R6
METAR K6R6 221453Z AUTO 00000KT 16/16 A2992 RMK AO1 SLP110 T01560156
53004 $





000
SAUS44 KMAF 221449
MTRGDP
SPECI KGDP 221431Z AUTO 09008KT 3SM BR BKN002 BKN095 08/07 A3006 RMK
AO2 RAE06 P0000 T00780067





000
SAUS44 KMAF 221438
MTRGDP
SPECI KGDP 221420Z AUTO 07009KT 1SM BR VV002 07/07 A3006 RMK AO2
RAE06 P0000 T00670067





000
SAUS44 KMAF 221434
MTRGDP
SPECI KGDP 221416Z AUTO 07012KT 3/4SM BR VV001 07/06 A3006 RMK AO2
RAE06 P0000 T00670061





000
SAUS44 KMAF 221409
MTRGDP
METAR KGDP 221351Z AUTO 08013KT M1/4SM -RA FG BKN001 OVC080 07/06
A3004 RMK AO2 RAB45 SLP139 P0000 T00670061





000
SAUS44 KMAF 221407
MTRGDP
SPECI KGDP 221349Z AUTO 07012KT M1/4SM -RA FG BKN001 BKN070 OVC085
07/06 A3004 RMK AO2 RAB45 P0000





000
SAUS44 KMAF 221403
MTRGDP
SPECI KGDP 221345Z AUTO 08014KT M1/4SM -RA FG BKN008 BKN070 OVC085
07/06 A3003 RMK AO2 RAB45 P0000





000
SAUS44 KMAF 221358
MTRGDP
SPECI KGDP 221340Z AUTO 08013KT 1/4SM FG BKN016 BKN070 OVC110 07/06
A3002 RMK AO2 T00670061





000
SAUS44 KMAF 221354
MTR6R6
METAR K6R6 221353Z AUTO 19004KT 16/16 A2991 RMK AO1 SLP106 T01610156
$





000
SAUS44 KMAF 221353
MTRGDP
SPECI KGDP 221335Z AUTO 04010KT 3/4SM BR FEW031 BKN070 OVC110 07/06
A3002 RMK AO2 T00670056





000
SAUS44 KMAF 221309
MTRGDP
METAR KGDP 221251Z AUTO 01008KT 10SM FEW070 SCT080 BKN100 11/M01
A3002 RMK AO2 SLP127 T01111011





000
SAUS44 KMAF 221254
MTR6R6
METAR K6R6 221253Z AUTO 00000KT 16/16 A2989 RMK AO1 SLP098 T01610156
$





000
SAUS44 KMAF 221210 COR
MTRGDP
METAR KGDP 221151Z AUTO 03011KT 10SM BKN100 11/M01 A3003 RMK AO2
RAB1058E08 SLP126 P0000 60000 T01061006 10144 20100 58001





000
SAUS44 KMAF 221209
MTRGDP
METAR KGDP 221151Z AUTO 03011KT 10SM BKN100 11/M01 A3003 RMK AO2
RAB1058E08 SLP126 P0000 60000 T01061006 10144 20100 58001





000
SAUS44 KMAF 221154
MTR6R6
METAR K6R6 221153Z AUTO 00000KT 16/16 A2990 RMK AO1 SLP103 T01610156
10161 20133 54000 $





000
SAUS44 KMAF 221109
MTRGDP
METAR KGDP 221051Z AUTO 00000KT 10SM BKN055 OVC070 11/M01 A3005 RMK
AO2 RAB38E48 SLP129 P0000 T01111011





000
SAUS44 KMAF 221054
MTR6R6
METAR K6R6 221053Z AUTO 00000KT 16/16 A2990 RMK AO1 SLP103 T01610156
$





000
SAUS44 KMAF 221009
MTRGDP
METAR KGDP 220951Z AUTO 31007KT 10SM OVC090 13/M03 A3003 RMK AO2
SLP113 T01281028





000
SAUS44 KMAF 220954
MTR6R6
METAR K6R6 220953Z AUTO 00000KT 16/15 A2990 RMK AO1 SLP103 T01560150
$





000
SAUS44 KMAF 220954
MTR6R6
METAR K6R6 220953Z AUTO 00000KT 16/15 A2990 RMK AO1 SLP103 T01560150
$





000
SAUS44 KMAF 220910 COR
MTRGDP
METAR KGDP 220851Z AUTO 32006KT 10SM BKN075 OVC095 13/M02 A3003 RMK
AO2 RAB15E32 SLP110 P0000 60000 T01331022 58002





000
SAUS44 KMAF 220909
MTRGDP
METAR KGDP 220851Z AUTO 32006KT 10SM BKN075 OVC095 13/M02 A3003 RMK
AO2 RAB15E32 SLP110 P0000 60000 T01331022 58002





000
SAUS44 KMAF 220854
MTR6R6
METAR K6R6 220853Z AUTO 08004KT 15/14 A2990 RMK AO1 SLP105 T01500144
$





000
SAUS44 KMAF 220809
MTRGDP
METAR KGDP 220751Z AUTO 32005KT 10SM FEW070 OVC090 13/M03 A3004 RMK
AO2 SLP115 T01331033





000
SAUS44 KMAF 220754
MTR6R6
METAR K6R6 220753Z AUTO 35004KT 14/14 A2992 RMK AO1 SLP113 T01440139
$





000
SAUS44 KMAF 220709
MTRGDP
METAR KGDP 220651Z AUTO 02006KT 10SM OVC110 13/M03 A3003 RMK AO2
SLP113 T01281028 402000078





000
SAUS44 KMAF 220655
MTR6R6
METAR K6R6 220653Z AUTO 02005KT 13/13 A2993 RMK AO1 SLP114 T01330128
$





000
SAUS44 KMAF 220609
MTRGDP
METAR KGDP 220551Z AUTO 04011KT 10SM BKN110 10/01 A3004 RMK AO2
SLP122 T01000006 10122 20094 52002





000
SAUS44 KMAF 220554
MTR6R6
METAR K6R6 220553Z AUTO 35004KT 13/13 A2994 RMK AO1 SLP119 T01330128
10178 20133 401890100 58006 $





000
SAUS44 KMAF 220509
MTRGDP
METAR KGDP 220451Z AUTO 05017KT 10SM CLR 10/00 A3004 RMK AO2 SLP125
T01000000





000
SAUS44 KMAF 220454
MTR6R6
METAR K6R6 220453Z AUTO 04008KT 14/13 A2994 RMK AO1 SLP122 T01390133
$





000
SAUS44 KMAF 220409
MTRGDP
METAR KGDP 220351Z AUTO 05020KT 10SM CLR 11/M01 A3003 RMK AO2 SLP126
T01111006





000
SAUS44 KMAF 220409
MTRGDP
METAR KGDP 220351Z AUTO 05020KT 10SM CLR 11/M01 A3003 RMK AO2 SLP126
T01111006





000
SAUS44 KMAF 220354
MTR6R6
METAR K6R6 220353Z AUTO 05008KT 14/14 A2995 RMK AO1 SLP125 T01440139
$





000
SAUS44 KMAF 220309
MTRGDP
METAR KGDP 220251Z AUTO 04021KT 10SM CLR 12/M03 A3003 RMK AO2 SLP130
T01171028 53002





000
SAUS44 KMAF 220254
MTR6R6
METAR K6R6 220253Z AUTO 06006KT 15/14 A2996 RMK AO1 SLP127 T01500139
$





000
SAUS44 KMAF 220209
MTRGDP
METAR KGDP 220151Z AUTO 04023KT 10SM CLR 12/M03 A3002 RMK AO2 SLP127
T01171028





000
SAUS44 KMAF 220154
MTR6R6
METAR K6R6 220153Z AUTO 07008KT 16/14 A2996 RMK AO1 SLP126 T01610139
$





000
SAUS44 KMAF 220109
MTRGDP
METAR KGDP 220051Z AUTO 05023KT 10SM CLR 11/M03 A3002 RMK AO2 SLP131
T01111028





000
SAUS44 KMAF 220055
MTR6R6
METAR K6R6 220053Z AUTO 10010KT 18/14 A2995 RMK AO1 SLP124 T01780139





000
SAUS44 KMAF 220009
MTRGDP
METAR KGDP 212351Z AUTO 05018KT 10SM CLR 12/M03 A3002 RMK AO2 SLP128
T01221028 10200 20122 53005





000
SAUS44 KMAF 212354
MTR6R6
METAR K6R6 212353Z AUTO 11008KT 18/14 A2994 RMK AO1 SLP120 T01780139
10189 20150 55004





000
SAUS44 KMAF 212309
MTRGDP
METAR KGDP 212251Z AUTO 06016KT 10SM CLR 14/M03 A3001 RMK AO2 WSHFT
2229 SLP120 T01441033





000
SAUS44 KMAF 212307
MTRGDP
SPECI KGDP 212249Z AUTO 06017KT 10SM CLR 14/M03 A3001 RMK AO2 WSHFT
2229





000
SAUS44 KMAF 212254
MTR6R6
METAR K6R6 212253Z AUTO 11010KT 18/13 A2994 RMK AO1 SLP118 T01780133





000
SAUS44 KMAF 212209
MTRGDP
METAR KGDP 212151Z AUTO VRB03KT 10SM CLR 17/M03 A3000 RMK AO2 SLP113
T01721033





000
SAUS44 KMAF 212154
MTR6R6
METAR K6R6 212153Z AUTO 12009KT 18/13 A2994 RMK AO1 SLP119 T01830133





000
SAUS44 KMAF 212109
MTRGDP
METAR KGDP 212051Z AUTO 18004KT 10SM CLR 18/M04 A3001 RMK AO2 SLP112
T01831039 56023





000
SAUS44 KMAF 212054
MTR6R6
METAR K6R6 212053Z AUTO 12008KT 18/13 A2996 RMK AO1 SLP124 T01780128
56032





000
SAUS44 KMAF 212009
MTRGDP
METAR KGDP 211951Z AUTO VRB04KT 10SM CLR 18/M04 A3003 RMK AO2 SLP119
T01781044





000
SAUS44 KMAF 211954
MTR6R6
METAR K6R6 211953Z AUTO 11007KT 17/13 A2998 RMK AO1 SLP135 T01670128





000
SAUS44 KMAF 211909
MTRGDP
METAR KGDP 211851Z AUTO 23007KT 190V260 10SM CLR 17/M06 A3006 RMK
AO2 SLP132 T01721061





000
SAUS44 KMAF 211854
MTR6R6
METAR K6R6 211853Z AUTO 12006KT 17/13 A3001 RMK AO1 SLP144 T01670128





000
SAUS44 KMAF 211809
MTRGDP
METAR KGDP 211751Z AUTO 24009KT 10SM CLR 16/M06 A3009 RMK AO2 SLP144
T01611056 10161 20078 58007





000
SAUS44 KMAF 211755
MTR6R6
METAR K6R6 211753Z AUTO 13009KT 15/12 A3006 RMK AO1 SLP161 T01500117
10150 20111 $





000
SAUS44 KMAF 211709
MTRGDP
METAR KGDP 211651Z AUTO 23009KT 10SM CLR 15/M04 A3011 RMK AO2 SLP153
T01501044





000
SAUS44 KMAF 211654
MTR6R6
METAR K6R6 211653Z AUTO 11009KT 12/12 A3007 RMK AO1 SLP167 T01220117





000
SAUS44 KMAF 211608
MTRGDP
METAR KGDP 211551Z AUTO 23006KT 10SM CLR 12/M06 A3011 RMK AO2 SLP157
T01221056





000
SAUS44 KMAF 211554
MTR6R6
METAR K6R6 211553Z AUTO 10006KT 12/12 A3008 RMK AO1 SLP170 T01220117





000
SAUS44 KMAF 211554
MTR6R6
METAR K6R6 211553Z AUTO 10006KT 12/12 A3008 RMK AO1 SLP170 T01220117





000
SAUS44 KMAF 211509
MTRGDP
METAR KGDP 211451Z AUTO 24005KT 10SM CLR 09/M06 A3011 RMK AO2 SLP165
T00941061 53012





000
SAUS44 KMAF 211454
MTR6R6
METAR K6R6 211453Z AUTO 02006KT 12/11 A3006 RMK AO1 SLP166 T01170111
53018





000
SAUS44 KMAF 211409
MTRGDP
METAR KGDP 211351Z AUTO 25007KT 10SM CLR 09/M07 A3009 RMK AO2 SLP156
T00891067





000
SAUS44 KMAF 211354
MTR6R6
METAR K6R6 211353Z AUTO 05006KT 11/11 A3005 RMK AO1 SLP159 T01110111





000
SAUS44 KMAF 211309
MTRGDP
METAR KGDP 211251Z AUTO 24007KT 10SM CLR 08/M07 A3008 RMK AO2 SLP152
T00781067





000
SAUS44 KMAF 211254
MTR6R6
METAR K6R6 211253Z AUTO 03007KT 11/11 A3002 RMK AO1 SLP152 T01110111





000
SAUS44 KMAF 211209
MTRGDP
METAR KGDP 211151Z AUTO 23013KT 10SM CLR 08/M07 A3007 RMK AO2 SLP146
T00831072 10089 20072 53001





000
SAUS44 KMAF 211154
MTR6R6
METAR K6R6 211153Z AUTO 05005KT 12/11 A3001 RMK AO1 SLP144 T01170111
10117 20100 51001





000
SAUS44 KMAF 211109
MTRGDP
METAR KGDP 211051Z AUTO 23013KT 10SM CLR 08/M07 A3006 RMK AO2 SLP138
T00831072





000
SAUS44 KMAF 211054
MTR6R6
METAR K6R6 211053Z AUTO 03006KT 12/11 A3001 RMK AO1 SLP142 T01170111





000
SAUS44 KMAF 211009
MTRGDP
METAR KGDP 210951Z AUTO 24011KT 10SM CLR 08/M07 A3007 RMK AO2 SLP139
T00831072





000
SAUS44 KMAF 210954
MTR6R6
METAR K6R6 210953Z AUTO 03005KT 12/11 A3001 RMK AO1 SLP139 T01170111





000
SAUS44 KMAF 210909
MTRGDP
METAR KGDP 210851Z AUTO 25013KT 10SM CLR 09/M08 A3007 RMK AO2 SLP137
T00891078 57001





000
SAUS44 KMAF 210854
MTR6R6
METAR K6R6 210853Z AUTO 02004KT 12/11 A3000 RMK AO1 SLP138 T01170111
56004





000
SAUS44 KMAF 210809
MTRGDP
METAR KGDP 210751Z AUTO 25015KT 10SM CLR 08/M07 A3007 RMK AO2 SLP139
T00831072





000
SAUS44 KMAF 210754
MTR6R6
METAR K6R6 210753Z AUTO 36006KT 11/09 A3000 RMK AO1 SLP140 T01060094





000
SAUS44 KMAF 210709
MTRGDP
METAR KGDP 210651Z AUTO 25016KT 10SM CLR 08/M08 A3008 RMK AO2 SLP143
T00831078 401720039





000
SAUS44 KMAF 210654
MTR6R6
METAR K6R6 210653Z AUTO 36006KT 11/09 A3001 RMK AO1 SLP142 T01060094





000
SAUS44 KMAF 210609
MTRGDP
METAR KGDP 210551Z AUTO 23017KT 10SM CLR 09/M08 A3008 RMK AO2 SLP145
T00891083 10122 20089 50001





000
SAUS44 KMAF 210554
MTR6R6
METAR K6R6 210553Z AUTO 36006KT 11/09 A3002 RMK AO1 SLP146 T01060094
10161 20106 402170028 51003





000
SAUS44 KMAF 210509
MTRGDP
METAR KGDP 210451Z AUTO 23009KT 10SM CLR 09/M08 A3008 RMK AO2 SLP152
T00941083





000
SAUS44 KMAF 210454
MTR6R6
METAR K6R6 210453Z AUTO 03007KT 11/09 A3001 RMK AO1 SLP148 T01110089





000
SAUS44 KMAF 210409
MTRGDP
METAR KGDP 210351Z AUTO 23010KT 10SM CLR 10/M08 A3008 RMK AO2 SLP158
T01001083





000
SAUS44 KMAF 210354
MTR6R6
METAR K6R6 210353Z AUTO 02005KT 12/09 A3002 RMK AO1 SLP150 T01170094





000
SAUS44 KMAF 210354
MTR6R6
METAR K6R6 210353Z AUTO 02005KT 12/09 A3002 RMK AO1 SLP150 T01170094





000
SAUS44 KMAF 210309
MTRGDP
METAR KGDP 210251Z AUTO 24011KT 10SM CLR 09/M09 A3007 RMK AO2 SLP160
T00941089 50006





000
SAUS44 KMAF 210309
MTRGDP
METAR KGDP 210251Z AUTO 24011KT 10SM CLR 09/M09 A3007 RMK AO2 SLP160
T00941089 50006





000
SAUS44 KMAF 210255
MTR6R6
METAR K6R6 210253Z AUTO 04005KT 11/08 A3001 RMK AO1 SLP148 T01110083
51014





000
SAUS44 KMAF 210209
MTRGDP
METAR KGDP 210151Z AUTO 24015KT 10SM CLR 11/M09 A3007 RMK AO2 SLP158
T01061089





000
SAUS44 KMAF 210154
MTR6R6
METAR K6R6 210153Z AUTO 07005KT 12/07 A3000 RMK AO1 SLP148 T01220072





000
SAUS44 KMAF 210109
MTRGDP
METAR KGDP 210051Z AUTO 25017KT 10SM CLR 12/M10 A3006 RMK AO2 SLP151
T01171100





000
SAUS44 KMAF 210054
MTR6R6
METAR K6R6 210053Z AUTO 07004KT 13/04 A2998 RMK AO1 SLP142 T01330044





000
SAUS44 KMAF 210009
MTRGDP
METAR KGDP 202351Z AUTO 24016KT 10SM CLR 12/M08 A3005 RMK AO2 SLP148
T01221083 10172 20122 53000





000
SAUS44 KMAF 202354
MTR6R6
METAR K6R6 202353Z AUTO 11005KT 16/04 A2997 RMK AO1 SLP133 T01610039
10217 20161 55000





000
SAUS44 KMAF 202308
MTRGDP
METAR KGDP 202251Z AUTO 24021G24KT 10SM CLR 15/M08 A3004 RMK AO2 PK
WND 24028/2152 SLP138 T01501083





000
SAUS44 KMAF 202254
MTR6R6
METAR K6R6 202253Z AUTO 15009KT 19/04 A2996 RMK AO1 SLP127 T01940044





000
SAUS44 KMAF 202208
MTRGDP
METAR KGDP 202151Z AUTO 24018G27KT 10SM CLR 16/M07 A3004 RMK AO2 PK
WND 25027/2135 SLP135 T01611072





000
SAUS44 KMAF 202154
MTR6R6
METAR K6R6 202153Z AUTO 15008KT 22/03 A2995 RMK AO1 SLP124 T02170033





000
SAUS44 KMAF 202108
MTRGDP
METAR KGDP 202051Z AUTO 24019G26KT 10SM CLR 17/M06 A3005 RMK AO2 PK
WND 24030/2024 SLP132 T01671061 56019





000
SAUS44 KMAF 202054
MTR6R6
METAR K6R6 202053Z AUTO 13006KT 21/02 A2997 RMK AO1 SLP129 T02110022
56030





000
SAUS44 KMAF 202008
MTRGDP
METAR KGDP 201951Z AUTO 24022KT 10SM CLR 16/M05 A3006 RMK AO2 PK WND
24028/1938 SLP139 T01611050





000
SAUS44 KMAF 201954
MTR6R6
METAR K6R6 201953Z AUTO VRB04KT 20/02 A2999 RMK AO1 SLP136 T02000017





000
SAUS44 KMAF 201909
MTRGDP
METAR KGDP 201851Z AUTO 25025G30KT 10SM CLR 15/M06 A3008 RMK AO2 PK
WND 24030/1838 SLP146 T01501061





000
SAUS44 KMAF 201854
MTR6R6
METAR K6R6 201853Z AUTO 17007KT 19/02 A3002 RMK AO1 SLP148 T01890022





000
SAUS44 KMAF 201810 COR
MTRGDP
METAR KGDP 201751Z AUTO 23019G25KT 10SM CLR 13/M04 A3011 RMK AO2 PK
WND 23027/1730 SLP160 T01281044 10133 20039 58004





000
SAUS44 KMAF 201809 COR
MTRGDP
METAR KGDP 201751Z AUTO 23019G25KT 10SM CLR 13/M04 A3011 RMK AO2 PK
WND 23027/1730 SLP160 T01281044 10133 20039 58004





000
SAUS44 KMAF 201808
MTRGDP
METAR KGDP 201751Z AUTO 23019G25KT 10SM CLR 13/M04 A3011 RMK AO2 PK
WND 23027/1730 SLP160 T01281044 10133 20039 58004





000
SAUS44 KMAF 201754
MTR6R6
METAR K6R6 201753Z AUTO 17004KT 18/03 A3006 RMK AO1 SLP165 T01780033
10178 20028 58009





000
SAUS44 KMAF 201708
MTRGDP
METAR KGDP 201651Z AUTO 22016KT 10SM CLR 09/M06 A3014 RMK AO2 SLP179
T00941056





000
SAUS44 KMAF 201654
MTR6R6
METAR K6R6 201653Z AUTO 00000KT 14/04 A3010 RMK AO1 SLP178 T01440044





000
SAUS44 KMAF 201608
MTRGDP
METAR KGDP 201551Z AUTO 21012KT 10SM CLR 06/M08 A3014 RMK AO2 SLP187
T00611078





000
SAUS44 KMAF 201554
MTR6R6
METAR K6R6 201553Z AUTO 00000KT 12/06 A3010 RMK AO1 SLP180 T01170056





000
SAUS44 KMAF 201509
MTRGDP
METAR KGDP 201451Z AUTO 21014KT 10SM CLR 05/M09 A3013 RMK AO2 SLP179
T00501094 53013





000
SAUS44 KMAF 201454
MTR6R6
METAR K6R6 201453Z AUTO 07003KT 10/06 A3009 RMK AO1 SLP176 T01000056
51011





000
SAUS44 KMAF 201409
MTRGDP
METAR KGDP 201351Z AUTO 22010KT 180V250 10SM CLR 05/M08 A3011 RMK
AO2 SLP174 T00501083





000
SAUS44 KMAF 201409
MTRGDP
METAR KGDP 201351Z AUTO 22010KT 180V250 10SM CLR 05/M08 A3011 RMK
AO2 SLP174 T00501083





000
SAUS44 KMAF 201354
MTR6R6
METAR K6R6 201353Z AUTO 33004KT 06/04 A3008 RMK AO1 SLP176 T00560039





000
SAUS44 KMAF 201309
MTRGDP
METAR KGDP 201251Z AUTO 23017G22KT 10SM CLR 05/M08 A3009 RMK AO2
SLP167 T00501078





000
SAUS44 KMAF 201254
MTR6R6
METAR K6R6 201253Z AUTO 33003KT 04/03 A3007 RMK AO1 SLP171 T00440033





000
SAUS44 KMAF 201209
MTRGDP
METAR KGDP 201151Z AUTO 23016G22KT 10SM CLR 04/M09 A3008 RMK AO2
SLP161 T00441089 10083 20039 53000





000
SAUS44 KMAF 201154
MTR6R6
METAR K6R6 201153Z AUTO 33003KT 04/02 A3006 RMK AO1 SLP165 T00440022
10072 20039 56007





000
SAUS44 KMAF 201108
MTRGDP
METAR KGDP 201051Z AUTO 24015KT 10SM CLR 04/M08 A3008 RMK AO2 SLP155
T00441078





000
SAUS44 KMAF 201054
MTR6R6
METAR K6R6 201053Z AUTO 36006KT 06/04 A3006 RMK AO1 SLP163 T00610039





000
SAUS44 KMAF 201008
MTRGDP
METAR KGDP 200951Z AUTO 24019G23KT 10SM CLR 05/M06 A3008 RMK AO2 PK
WND 25032/0854 SLP152 T00501061





000
SAUS44 KMAF 200954
MTR6R6
METAR K6R6 200953Z AUTO 36007KT 06/03 A3007 RMK AO1 SLP167 T00610033





000
SAUS44 KMAF 200954
MTR6R6
METAR K6R6 200953Z AUTO 36007KT 06/03 A3007 RMK AO1 SLP167 T00610033





000
SAUS44 KMAF 200908
MTRGDP
METAR KGDP 200851Z AUTO 25028KT 10SM CLR 08/M05 A3008 RMK AO2 PK WND
24033/0840 SLP147 T00781050 58021





000
SAUS44 KMAF 200854
MTR6R6
METAR K6R6 200853Z AUTO 33007KT 07/03 A3008 RMK AO1 SLP167 T00670033
56015





000
SAUS44 KMAF 200808
MTRGDP
METAR KGDP 200751Z AUTO 24020KT 10SM CLR 06/M08 A3011 RMK AO2 SLP161
T00611078





000
SAUS44 KMAF 200754
MTR6R6
METAR K6R6 200753Z AUTO 35007KT 07/03 A3008 RMK AO1 SLP169 T00720033





000
SAUS44 KMAF 200708
MTRGDP
METAR KGDP 200651Z AUTO 24014KT 10SM CLR 08/M08 A3014 RMK AO2 SLP173
T00781078 401440000





000
SAUS44 KMAF 200654
MTR6R6
METAR K6R6 200653Z AUTO 36007KT 07/03 A3010 RMK AO1 SLP178 T00720033





000
SAUS44 KMAF 200608
MTRGDP
METAR KGDP 200551Z AUTO 24015KT 10SM CLR 08/M12 A3015 RMK AO2 SLP182
T00781117 10111 20061 57003





000
SAUS44 KMAF 200555
MTR6R6
METAR K6R6 200553Z AUTO 02005KT 07/03 A3012 RMK AO1 SLP186 T00670028
10156 20067 402111022 58001





000
SAUS44 KMAF 200508
MTRGDP
METAR KGDP 200451Z AUTO 25016KT 10SM CLR 07/M10 A3016 RMK AO2 SLP189
T00721100





000
SAUS44 KMAF 200454
MTR6R6
METAR K6R6 200453Z AUTO 05004KT 08/02 A3012 RMK AO1 SLP188 T00780022





000
SAUS44 KMAF 200408
MTRGDP
METAR KGDP 200351Z AUTO 24014KT 10SM CLR 07/M08 A3016 RMK AO2 SLP200
T00671078





000
SAUS44 KMAF 200354
MTR6R6
METAR K6R6 200353Z AUTO 04005KT 09/02 A3014 RMK AO1 SLP194 T00890022





000
SAUS44 KMAF 200354
MTR6R6
METAR K6R6 200353Z AUTO 04005KT 09/02 A3014 RMK AO1 SLP194 T00890022





000
SAUS44 KMAF 200308
MTRGDP
METAR KGDP 200251Z AUTO 25016KT 10SM CLR 09/M11 A3016 RMK AO2 SLP197
T00891106 53001





000
SAUS44 KMAF 200254
MTR6R6
METAR K6R6 200253Z AUTO 13005KT 11/02 A3013 RMK AO1 SLP192 T01110017
51005





000
SAUS44 KMAF 200208
MTRGDP
METAR KGDP 200151Z AUTO 24014KT 10SM CLR 08/M09 A3016 RMK AO2 SLP200
T00831089





000
SAUS44 KMAF 200154
MTR6R6
METAR K6R6 200153Z AUTO 14008KT 12/02 A3012 RMK AO1 SLP193 T01220017





000
SAUS44 KMAF 200108
MTRGDP
METAR KGDP 200051Z AUTO 25014KT 10SM CLR 09/M13 A3016 RMK AO2 SLP201
T00941128





000
SAUS44 KMAF 200054
MTR6R6
METAR K6R6 200053Z AUTO 14008KT 13/02 A3012 RMK AO1 SLP195 T01330017





    US Dept of Commerce
    National Oceanic and Atmospheric Administration
    National Weather Service
    1325 East West Highway
    Silver Spring, MD 20910
    Page Author: NWS Internet Services Team
Disclaimer
Information Quality
Credits
Glossary
Privacy Policy
Freedom of Information Act (FOIA)
About Us
Career Opportunities